Time;durP1;ratioP1;P1;durP2;ratioP2;P2;SDS_P1;SDS_P2;PMS_P1;PMS_P2;Temp;Humidity;BMP_temperature;BMP_pressure;BME280_temperature;BME280_humidity;BME280_pressure;Samples;Min_cycle;Max_cycle;Signal;HPM_P1;HPM_P2
2022/03/21 00:00:42;;;;;;;21.15;14.68;;;26.70;84.10;;;;;;4948468;29;20035;-46
2022/03/21 00:03:12;;;;;;;17.27;14.40;;;26.70;84.10;;;;;;4960529;28;20027;-46
2022/03/21 00:05:38;;;;;;;20.70;13.98;;;26.80;84.20;;;;;;4968807;28;20085;-45
2022/03/21 00:08:06;;;;;;;16.95;12.95;;;26.70;84.20;;;;;;4968376;28;20026;-45
2022/03/21 00:10:36;;;;;;;24.83;14.90;;;26.70;83.90;;;;;;4967223;29;20341;-45
2022/03/21 00:13:03;;;;;;;23.42;14.35;;;26.70;84.00;;;;;;4967145;29;20023;-44
2022/03/21 00:15:34;;;;;;;20.08;12.43;;;26.80;84.20;;;;;;4967582;29;20236;-45
2022/03/21 00:18:02;;;;;;;22.27;13.50;;;26.70;84.00;;;;;;4961009;29;20328;-45
2022/03/21 00:20:31;;;;;;;24.00;13.38;;;26.70;83.80;;;;;;4964579;29;20038;-55
2022/03/21 00:22:57;;;;;;;30.65;15.18;;;26.70;84.10;;;;;;4959152;29;20049;-44
2022/03/21 00:25:24;;;;;;;26.85;14.98;;;26.70;84.10;;;;;;4961667;29;20042;-48
2022/03/21 00:27:52;;;;;;;24.42;13.85;;;26.70;84.20;;;;;;4958037;29;20032;-47
2022/03/21 00:30:20;;;;;;;18.25;12.43;;;26.70;83.60;;;;;;4960330;29;20035;-43
2022/03/21 00:32:47;;;;;;;20.52;13.18;;;26.70;83.30;;;;;;4967619;28;20251;-46
2022/03/21 00:35:17;;;;;;;17.77;13.05;;;26.70;82.90;;;;;;4970341;28;20050;-46
2022/03/21 00:37:45;;;;;;;19.30;13.20;;;26.80;82.90;;;;;;4981049;28;20023;-56
2022/03/21 00:40:14;;;;;;;17.60;12.73;;;26.70;82.40;;;;;;4986133;28;20271;-53
2022/03/21 00:42:43;;;;;;;21.48;13.60;;;26.70;82.50;;;;;;4963020;28;20066;-45
2022/03/21 00:45:12;;;;;;;19.17;13.65;;;26.70;82.50;;;;;;4948387;29;20039;-55
2022/03/21 00:47:39;;;;;;;14.55;12.85;;;26.70;82.30;;;;;;4948820;29;20053;-46
2022/03/21 00:50:08;;;;;;;16.50;12.63;;;26.70;82.10;;;;;;4959750;29;20218;-44
2022/03/21 00:52:44;;;;;;;17.38;12.75;;;26.70;81.90;;;;;;4957639;29;20027;-47
2022/03/21 00:55:12;;;;;;;18.10;13.30;;;26.70;82.30;;;;;;4954442;28;20036;-50
2022/03/21 00:58:21;;;;;;;19.40;14.70;;;26.70;81.90;;;;;;5122117;27;20413;-48
2022/03/21 01:00:48;;;;;;;25.98;17.60;;;26.70;82.50;;;;;;5107671;28;20040;-47
2022/03/21 01:03:15;;;;;;;35.47;18.75;;;26.60;82.90;;;;;;5101301;28;20389;-47
2022/03/21 01:05:42;;;;;;;23.50;16.27;;;26.60;83.30;;;;;;5100982;28;20030;-46
2022/03/21 01:08:08;;;;;;;25.23;16.20;;;26.60;83.30;;;;;;5101345;28;20059;-49
2022/03/21 01:10:35;;;;;;;23.85;15.45;;;26.60;83.30;;;;;;5101198;28;20032;-49
2022/03/21 01:13:02;;;;;;;17.58;15.35;;;26.60;83.80;;;;;;5100676;28;20028;-53
2022/03/21 01:15:29;;;;;;;18.60;16.63;;;26.60;83.90;;;;;;5108967;28;20028;-49
2022/03/21 01:17:57;;;;;;;24.85;15.85;;;26.50;84.20;;;;;;5121851;28;20034;-56
2022/03/21 01:20:25;;;;;;;20.50;16.13;;;26.60;84.00;;;;;;5121447;28;20016;-46
2022/03/21 01:22:52;;;;;;;22.35;16.27;;;26.60;83.40;;;;;;5121955;28;20032;-55
2022/03/21 01:25:19;;;;;;;51.10;18.20;;;26.50;83.00;;;;;;5121299;28;20031;-51
2022/03/21 01:27:46;;;;;;;39.10;18.17;;;26.60;82.40;;;;;;5121820;28;20039;-51
2022/03/21 01:30:16;;;;;;;27.80;17.65;;;26.50;82.50;;;;;;5121293;28;20211;-49
2022/03/21 01:32:43;;;;;;;37.33;18.80;;;26.60;82.10;;;;;;5121459;28;20046;-50
2022/03/21 01:35:13;;;;;;;30.38;18.15;;;26.60;81.80;;;;;;5120792;28;20245;-49
2022/03/21 01:37:39;;;;;;;36.38;18.33;;;26.60;81.70;;;;;;5121461;28;20042;-50
2022/03/21 01:40:07;;;;;;;25.17;17.85;;;26.60;81.40;;;;;;5121307;28;20027;-46
2022/03/21 01:42:36;;;;;;;35.95;19.20;;;26.60;81.20;;;;;;5121545;28;20043;-45
2022/03/21 01:45:05;;;;;;;29.52;17.67;;;26.60;81.10;;;;;;5121073;28;20032;-46
2022/03/21 01:47:33;;;;;;;27.95;18.08;;;26.60;80.90;;;;;;5121269;28;20042;-46
2022/03/21 01:50:00;;;;;;;27.70;18.02;;;26.60;80.80;;;;;;5120847;28;20035;-47
2022/03/21 01:52:26;;;;;;;33.20;19.52;;;26.60;80.80;;;;;;5107883;28;20158;-47
2022/03/21 01:57:38;;;;;;;30.42;19.83;;;26.60;81.40;;;;;;5114487;28;20047;-53
2022/03/21 02:00:07;;;;;;;29.50;20.02;;;26.60;81.40;;;;;;5090981;28;20032;-42
2022/03/21 02:02:34;;;;;;;28.55;20.23;;;26.60;81.30;;;;;;5097049;28;20036;-46
2022/03/21 02:05:00;;;;;;;27.17;20.00;;;26.60;81.30;;;;;;5099309;28;20019;-44
2022/03/21 02:07:27;;;;;;;72.55;56.20;;;26.60;81.50;;;;;;5083611;28;20037;-42
2022/03/21 02:09:54;;;;;;;58.53;52.53;;;26.60;81.20;;;;;;5082469;28;20043;-45
2022/03/21 02:12:21;;;;;;;50.55;45.10;;;26.60;81.00;;;;;;5086150;28;20051;-45
2022/03/21 02:14:49;;;;;;;32.72;28.83;;;26.60;81.00;;;;;;5085851;28;20058;-43
2022/03/21 02:17:24;;;;;;;30.45;24.95;;;26.60;80.60;;;;;;5091796;28;20020;-44
2022/03/21 02:19:52;;;;;;;23.95;20.83;;;26.60;80.80;;;;;;5081249;28;20016;-44
2022/03/21 02:22:54;;;;;;;23.98;21.27;;;26.60;80.90;;;;;;5086516;28;20024;-43
2022/03/21 02:25:34;;;;;;;24.20;21.60;;;26.50;80.70;;;;;;5086193;28;20028;-43
2022/03/21 02:28:06;;;;;;;23.00;20.38;;;26.60;80.80;;;;;;5086731;28;20055;-44
2022/03/21 02:30:37;;;;;;;22.77;20.38;;;26.60;80.90;;;;;;5086230;28;20024;-43
2022/03/21 02:33:05;;;;;;;22.95;20.50;;;26.60;80.80;;;;;;5086691;28;20288;-46
2022/03/21 02:35:33;;;;;;;23.35;20.05;;;26.50;80.70;;;;;;5092668;28;20073;-43
2022/03/21 02:38:01;;;;;;;23.23;19.40;;;26.60;80.90;;;;;;5088921;28;20294;-46
2022/03/21 02:40:29;;;;;;;136.85;124.10;;;26.60;80.90;;;;;;5090788;28;20073;-46
2022/03/21 02:42:56;;;;;;;243.07;221.35;;;26.60;81.10;;;;;;5090525;28;20189;-45
2022/03/21 02:45:23;;;;;;;50.40;45.08;;;26.60;81.30;;;;;;5082889;28;20024;-45
2022/03/21 02:47:50;;;;;;;31.73;28.60;;;26.60;81.30;;;;;;5083187;28;20186;-44
2022/03/21 02:50:23;;;;;;;28.42;25.65;;;26.60;80.90;;;;;;5085772;28;20074;-45
2022/03/21 02:52:54;;;;;;;26.25;23.60;;;26.60;81.10;;;;;;5084853;28;20032;-46
2022/03/21 02:55:21;;;;;;;25.92;21.30;;;26.60;81.00;;;;;;5085667;28;20320;-43
2022/03/21 02:57:48;;;;;;;23.45;21.20;;;26.60;81.00;;;;;;5085381;28;20064;-43
2022/03/21 03:00:15;;;;;;;25.13;20.35;;;26.60;81.10;;;;;;5085473;28;20024;-44
2022/03/21 03:02:42;;;;;;;21.85;19.55;;;26.60;81.20;;;;;;5085469;28;20212;-45
2022/03/21 03:05:09;;;;;;;20.50;18.10;;;26.60;80.80;;;;;;5084943;28;20243;-42
2022/03/21 03:07:35;;;;;;;22.58;18.35;;;26.60;81.10;;;;;;5085908;28;20032;-42
2022/03/21 03:10:02;;;;;;;20.40;18.30;;;26.60;80.80;;;;;;5085513;28;20218;-45
2022/03/21 03:12:29;;;;;;;20.17;17.85;;;26.60;81.30;;;;;;5085684;28;20063;-45
2022/03/21 03:14:55;;;;;;;22.85;17.27;;;26.60;80.90;;;;;;5085448;28;20070;-44
2022/03/21 03:17:22;;;;;;;19.50;17.25;;;26.60;81.10;;;;;;5085832;28;20071;-48
2022/03/21 03:19:48;;;;;;;19.70;16.13;;;26.60;81.10;;;;;;5083837;28;20101;-40
2022/03/21 03:22:17;;;;;;;18.05;16.25;;;26.60;81.00;;;;;;5084447;28;20037;-45
2022/03/21 03:24:45;;;;;;;18.38;16.10;;;26.60;80.60;;;;;;5068258;28;20029;-42
2022/03/21 03:27:12;;;;;;;17.90;15.20;;;26.60;80.80;;;;;;5082080;28;20307;-42
2022/03/21 03:29:38;;;;;;;20.05;15.75;;;26.50;80.50;;;;;;5085090;28;20036;-45
2022/03/21 03:32:05;;;;;;;20.38;15.32;;;26.50;80.60;;;;;;5085185;28;20024;-43
2022/03/21 03:34:33;;;;;;;17.75;14.95;;;26.60;80.80;;;;;;5083608;28;20032;-43
2022/03/21 03:37:00;;;;;;;16.20;14.55;;;26.50;80.60;;;;;;5078772;28;20036;-45
2022/03/21 03:39:27;;;;;;;17.27;15.23;;;26.50;80.60;;;;;;5079443;28;20087;-44
2022/03/21 03:41:54;;;;;;;19.73;15.30;;;26.50;80.50;;;;;;5073609;28;20028;-42
2022/03/21 03:44:22;;;;;;;15.25;13.70;;;26.60;80.70;;;;;;5073480;28;20096;-43
2022/03/21 03:46:50;;;;;;;71.88;65.13;;;26.50;80.70;;;;;;5077928;28;20039;-45
2022/03/21 03:49:17;;;;;;;42.38;37.95;;;26.50;80.80;;;;;;5080474;28;20347;-46
2022/03/21 03:51:44;;;;;;;51.72;46.10;;;26.50;80.70;;;;;;5082157;28;20350;-44
2022/03/21 03:54:11;;;;;;;66.03;55.05;;;26.50;80.70;;;;;;5083431;28;20039;-42
2022/03/21 03:56:37;;;;;;;35.42;31.58;;;26.50;80.70;;;;;;5084186;28;20089;-45
2022/03/21 03:59:04;;;;;;;48.17;43.55;;;26.50;80.90;;;;;;5076118;28;20116;-45
2022/03/21 04:01:30;;;;;;;27.67;24.98;;;26.50;81.00;;;;;;5079342;28;20027;-45
2022/03/21 04:03:59;;;;;;;57.75;52.10;;;26.50;80.80;;;;;;5079275;28;20049;-46
2022/03/21 04:06:25;;;;;;;27.95;25.17;;;26.50;80.90;;;;;;5064410;28;20045;-43
2022/03/21 04:08:52;;;;;;;25.70;23.08;;;26.50;80.70;;;;;;5064353;28;20021;-43
2022/03/21 04:11:19;;;;;;;24.48;22.00;;;26.50;80.80;;;;;;5064472;28;20071;-51
2022/03/21 04:13:49;;;;;;;21.83;19.58;;;26.50;80.60;;;;;;5064646;28;20039;-44
2022/03/21 04:16:16;;;;;;;21.08;18.95;;;26.50;80.60;;;;;;5063582;28;20088;-42
2022/03/21 04:18:43;;;;;;;20.55;17.70;;;26.50;80.80;;;;;;5063636;28;20028;-43
2022/03/21 04:21:09;;;;;;;18.40;16.45;;;26.50;80.50;;;;;;5064116;28;20021;-42
2022/03/21 04:23:36;;;;;;;19.45;17.05;;;26.50;80.50;;;;;;5073690;28;20048;-43
2022/03/21 04:26:03;;;;;;;18.00;15.90;;;26.50;80.40;;;;;;5082990;28;20020;-42
2022/03/21 04:28:29;;;;;;;16.65;15.15;;;26.50;80.30;;;;;;5074702;28;20021;-48
2022/03/21 04:30:56;;;;;;;17.67;15.02;;;26.50;80.40;;;;;;5066415;28;20036;-44
2022/03/21 04:33:22;;;;;;;16.50;14.77;;;26.50;80.30;;;;;;5063626;28;20021;-42
2022/03/21 04:35:49;;;;;;;16.15;14.27;;;26.50;80.40;;;;;;5063185;28;20047;-47
2022/03/21 04:38:17;;;;;;;16.98;14.23;;;26.50;80.30;;;;;;5063217;28;20100;-44
2022/03/21 04:40:47;;;;;;;15.65;14.05;;;26.50;80.40;;;;;;5063194;28;20020;-42
2022/03/21 04:43:15;;;;;;;15.10;13.48;;;26.50;80.40;;;;;;5063761;28;20036;-43
2022/03/21 04:45:43;;;;;;;18.25;13.65;;;26.50;80.40;;;;;;5093599;28;20047;-45
2022/03/21 04:48:11;;;;;;;16.20;14.25;;;26.50;80.30;;;;;;5082850;28;20330;-50
2022/03/21 04:50:37;;;;;;;16.45;13.77;;;26.50;80.00;;;;;;5083143;28;20024;-43
2022/03/21 04:53:05;;;;;;;14.82;13.32;;;26.50;80.10;;;;;;5083604;28;20029;-44
2022/03/21 04:55:32;;;;;;;15.65;13.93;;;26.50;80.30;;;;;;5083147;28;20060;-49
2022/03/21 04:58:00;;;;;;;15.45;13.32;;;26.40;80.30;;;;;;5082768;28;20066;-45
2022/03/21 05:00:28;;;;;;;16.80;14.13;;;26.50;80.10;;;;;;5083090;28;20143;-43
2022/03/21 05:02:55;;;;;;;17.83;12.98;;;26.50;79.70;;;;;;5083130;28;20062;-45
2022/03/21 05:05:21;;;;;;;16.90;12.90;;;26.40;79.70;;;;;;5083274;28;20028;-42
2022/03/21 05:07:53;;;;;;;14.48;12.93;;;26.40;80.00;;;;;;5084124;28;20036;-43
2022/03/21 05:10:22;;;;;;;14.23;12.77;;;26.40;79.80;;;;;;5083834;28;20027;-46
2022/03/21 05:12:49;;;;;;;13.95;12.60;;;26.40;80.10;;;;;;5083154;28;20032;-43
2022/03/21 05:15:16;;;;;;;15.82;13.07;;;26.40;80.00;;;;;;5082657;28;20087;-43
2022/03/21 05:17:43;;;;;;;16.67;13.40;;;26.40;80.10;;;;;;5083953;28;20033;-41
2022/03/21 05:20:16;;;;;;;15.70;13.48;;;26.40;80.00;;;;;;5083576;28;20027;-41
2022/03/21 05:31:07;;;;;;;15.80;12.95;;;26.40;80.20;;;;;;5083595;28;20039;-46
2022/03/21 05:36:26;;;;;;;15.68;14.00;;;26.40;80.30;;;;;;5083905;28;20335;-44
2022/03/21 05:38:54;;;;;;;18.50;13.18;;;26.30;80.40;;;;;;5083327;28;20021;-42
2022/03/21 05:41:21;;;;;;;17.20;13.50;;;26.40;80.30;;;;;;5083689;28;20037;-42
2022/03/21 05:43:47;;;;;;;15.73;14.10;;;26.30;80.10;;;;;;5085167;28;20087;-43
2022/03/21 05:46:15;;;;;;;15.65;13.55;;;26.40;80.10;;;;;;5087124;28;20314;-44
2022/03/21 05:48:51;;;;;;;15.18;13.57;;;26.30;80.10;;;;;;5087082;28;20035;-44
2022/03/21 05:51:22;;;;;;;18.02;13.68;;;26.30;80.20;;;;;;5087146;28;20040;-44
2022/03/21 05:53:49;;;;;;;15.75;13.65;;;26.30;80.30;;;;;;5087001;28;20125;-43
2022/03/21 05:56:17;;;;;;;17.90;14.13;;;26.30;80.60;;;;;;5086700;28;20059;-43
2022/03/21 05:58:43;;;;;;;15.00;13.05;;;26.30;80.50;;;;;;5086845;28;20054;-43
2022/03/21 06:01:11;;;;;;;16.60;13.30;;;26.30;80.70;;;;;;5087171;28;20036;-46
2022/03/21 06:03:38;;;;;;;14.65;13.23;;;26.30;80.70;;;;;;5086769;28;20071;-42
2022/03/21 06:06:05;;;;;;;14.98;13.48;;;26.30;80.40;;;;;;5086727;28;20035;-48
2022/03/21 06:08:32;;;;;;;16.65;13.73;;;26.30;80.40;;;;;;5086723;28;20032;-48
2022/03/21 06:11:04;;;;;;;16.55;13.73;;;26.30;80.20;;;;;;5086720;28;20021;-47
2022/03/21 06:13:33;;;;;;;;;;;26.30;80.30;;;;;;5087225;28;20020;-44
2022/03/21 06:16:03;;;;;;;16.50;13.70;;;26.30;80.30;;;;;;5086665;28;19904;-43
2022/03/21 06:18:31;;;;;;;15.63;14.10;;;26.20;80.20;;;;;;5086540;28;20074;-47
2022/03/21 06:21:01;;;;;;;15.48;13.75;;;26.20;80.30;;;;;;5086497;28;20012;-43
2022/03/21 06:23:28;;;;;;;15.23;13.63;;;26.20;80.30;;;;;;5086534;28;20076;-44
2022/03/21 06:25:58;;;;;;;14.15;12.93;;;26.20;80.40;;;;;;5086403;28;20056;-42
2022/03/21 06:28:26;;;;;;;15.05;13.13;;;26.20;80.30;;;;;;5086708;28;20024;-48
2022/03/21 06:30:53;;;;;;;18.52;13.80;;;26.20;80.20;;;;;;5085134;28;20024;-45
2022/03/21 06:33:27;;;;;;;19.92;14.27;;;26.20;80.40;;;;;;5086281;28;20216;-45
2022/03/21 06:35:57;;;;;;;14.75;13.18;;;26.20;80.50;;;;;;5086267;28;20138;-47
2022/03/21 06:38:24;;;;;;;18.67;14.10;;;26.20;80.40;;;;;;5086303;28;20024;-53
2022/03/21 06:40:51;;;;;;;20.55;14.02;;;26.20;80.20;;;;;;5086054;28;20020;-48
2022/03/21 06:43:20;;;;;;;15.35;13.70;;;26.20;80.10;;;;;;5086322;28;20025;-44
2022/03/21 06:45:47;;;;;;;19.23;13.75;;;26.20;80.10;;;;;;5085982;28;20312;-48
2022/03/21 06:48:14;;;;;;;16.15;14.32;;;26.20;80.00;;;;;;5085851;28;20028;-44
2022/03/21 06:50:41;;;;;;;16.38;14.68;;;26.20;80.20;;;;;;5086148;28;20044;-45
2022/03/21 06:53:07;;;;;;;18.45;14.35;;;26.20;80.00;;;;;;5086491;28;20075;-46
2022/03/21 06:55:34;;;;;;;16.02;14.32;;;26.20;80.00;;;;;;5085788;28;20040;-43
2022/03/21 06:58:03;;;;;;;19.33;14.88;;;26.20;79.70;;;;;;5085653;28;20057;-47
2022/03/21 07:00:30;;;;;;;15.85;14.20;;;26.20;79.90;;;;;;5085757;28;20226;-48
2022/03/21 07:02:56;;;;;;;16.75;14.50;;;26.20;79.70;;;;;;5086347;28;20205;-43
2022/03/21 07:05:26;;;;;;;17.08;14.93;;;26.20;79.80;;;;;;5085889;28;20028;-44
2022/03/21 07:07:52;;;;;;;17.10;14.75;;;26.20;79.50;;;;;;5086208;28;20035;-43
2022/03/21 07:10:19;;;;;;;17.00;14.52;;;26.20;79.80;;;;;;5085495;28;20031;-45
2022/03/21 07:12:45;;;;;;;17.70;14.25;;;26.20;79.80;;;;;;5086254;28;20035;-47
2022/03/21 07:15:12;;;;;;;16.70;14.55;;;26.20;79.70;;;;;;5085990;28;20020;-44
2022/03/21 07:17:42;;;;;;;16.30;14.52;;;26.20;79.60;;;;;;5085829;28;20099;-43
2022/03/21 07:20:10;;;;;;;17.98;15.20;;;26.20;79.70;;;;;;5085475;28;20031;-44
2022/03/21 07:22:37;;;;;;;17.52;14.60;;;26.20;80.10;;;;;;5086175;28;20261;-45
2022/03/21 07:25:06;;;;;;;20.20;14.90;;;26.20;80.30;;;;;;5085302;28;20220;-47
2022/03/21 07:27:33;;;;;;;16.35;14.68;;;26.20;80.30;;;;;;5085770;28;20024;-43
2022/03/21 07:30:00;;;;;;;18.40;14.70;;;26.20;80.30;;;;;;5085715;28;20073;-48
2022/03/21 07:32:27;;;;;;;20.10;15.60;;;26.20;79.90;;;;;;5085434;28;20372;-43
2022/03/21 07:34:54;;;;;;;17.27;14.30;;;26.20;80.40;;;;;;5085315;28;20020;-46
2022/03/21 07:37:21;;;;;;;18.15;15.07;;;26.20;80.30;;;;;;5085603;28;20024;-47
2022/03/21 07:39:48;;;;;;;16.85;15.10;;;26.20;80.40;;;;;;5084935;28;20036;-45
2022/03/21 07:42:16;;;;;;;19.25;14.40;;;26.20;80.20;;;;;;5085247;28;20300;-42
2022/03/21 07:47:45;;;;;;;18.05;15.43;;;26.20;80.20;;;;;;5023346;28;20065;-51
2022/03/21 07:50:12;;;;;;;18.67;14.88;;;26.20;80.60;;;;;;5072319;28;20036;-45
2022/03/21 07:52:38;;;;;;;17.08;14.75;;;26.20;80.30;;;;;;5085100;28;20233;-48
2022/03/21 07:55:05;;;;;;;18.85;14.95;;;26.20;80.00;;;;;;5084827;28;20024;-49
2022/03/21 07:57:32;;;;;;;18.27;14.55;;;26.20;80.00;;;;;;5084554;28;20049;-43
2022/03/21 07:59:58;;;;;;;20.40;13.95;;;26.20;79.70;;;;;;5084794;28;20051;-46
2022/03/21 08:02:27;;;;;;;16.83;14.48;;;26.20;79.80;;;;;;5085204;28;20207;-44
2022/03/21 08:04:53;;;;;;;16.20;14.50;;;26.20;80.00;;;;;;5084412;28;20131;-44
2022/03/21 08:07:20;;;;;;;15.82;14.23;;;26.20;79.90;;;;;;5084266;28;20025;-40
2022/03/21 08:09:46;;;;;;;20.98;14.88;;;26.20;79.90;;;;;;5084541;28;20103;-43
2022/03/21 08:12:13;;;;;;;18.38;14.80;;;26.20;80.40;;;;;;5084894;28;20033;-45
2022/03/21 08:14:39;;;;;;;17.88;14.23;;;26.20;79.70;;;;;;5084698;28;20304;-46
2022/03/21 08:17:06;;;;;;;17.80;14.00;;;26.20;79.70;;;;;;5084775;28;20043;-44
2022/03/21 08:19:33;;;;;;;18.08;14.73;;;26.20;79.50;;;;;;5084337;28;20208;-43
2022/03/21 08:21:59;;;;;;;15.75;14.02;;;26.20;79.60;;;;;;5084375;28;20021;-45
2022/03/21 08:24:26;;;;;;;21.55;14.90;;;26.20;79.40;;;;;;5084205;28;20099;-42
2022/03/21 08:26:54;;;;;;;20.38;14.27;;;26.20;79.50;;;;;;5084574;28;20051;-44
2022/03/21 08:29:21;;;;;;;16.80;14.50;;;26.20;79.80;;;;;;5084131;28;20028;-44
2022/03/21 08:31:47;;;;;;;18.48;14.27;;;26.20;79.20;;;;;;5084345;28;20323;-45
2022/03/21 08:34:14;;;;;;;17.08;14.30;;;26.20;79.00;;;;;;5084190;28;20024;-43
2022/03/21 08:36:40;;;;;;;20.17;14.07;;;26.20;79.00;;;;;;5084133;28;20044;-45
2022/03/21 08:39:10;;;;;;;16.38;14.38;;;26.20;79.00;;;;;;5084411;28;20028;-44
2022/03/21 08:41:37;;;;;;;17.23;14.07;;;26.20;79.10;;;;;;5084169;28;20021;-46
2022/03/21 08:44:04;;;;;;;17.38;14.48;;;26.20;79.20;;;;;;5083958;28;20021;-42
2022/03/21 08:46:31;;;;;;;17.27;13.85;;;26.20;79.20;;;;;;5084143;28;20102;-44
2022/03/21 08:51:43;;;;;;;15.63;13.68;;;26.30;79.10;;;;;;5084191;28;20100;-46
2022/03/21 08:54:11;;;;;;;17.88;14.65;;;26.30;79.10;;;;;;5083807;28;20032;-45
2022/03/21 08:56:38;;;;;;;16.08;13.73;;;26.30;79.00;;;;;;5083451;28;20328;-43
2022/03/21 08:59:04;;;;;;;15.95;13.57;;;26.30;78.90;;;;;;5083966;28;20072;-42
2022/03/21 09:01:31;;;;;;;16.65;14.43;;;26.30;78.80;;;;;;5083932;28;20199;-40
2022/03/21 09:04:02;;;;;;;18.90;13.63;;;26.30;78.90;;;;;;5083600;28;20023;-42
2022/03/21 09:06:29;;;;;;;17.40;14.13;;;26.30;78.70;;;;;;5083987;28;20070;-44
2022/03/21 09:08:57;;;;;;;19.88;14.20;;;26.30;78.70;;;;;;5084128;28;20032;-48
2022/03/21 09:11:24;;;;;;;16.48;14.23;;;26.30;78.80;;;;;;5083818;28;20193;-46
2022/03/21 09:13:51;;;;;;;16.10;14.23;;;26.30;78.50;;;;;;5083817;28;20305;-45
2022/03/21 09:16:19;;;;;;;17.92;13.60;;;26.30;78.80;;;;;;5083771;28;20037;-43
2022/03/21 09:18:45;;;;;;;19.17;13.75;;;26.30;79.20;;;;;;5085231;28;20054;-41
2022/03/21 09:21:12;;;;;;;15.98;14.23;;;26.30;79.20;;;;;;5087753;28;20046;-47
2022/03/21 09:23:39;;;;;;;18.63;14.10;;;26.30;79.40;;;;;;5087609;28;20028;-44
2022/03/21 09:26:10;;;;;;;18.80;14.50;;;26.30;79.70;;;;;;5087439;28;20029;-44
2022/03/21 09:28:44;;;;;;;19.75;13.93;;;26.30;79.70;;;;;;5087780;28;20015;-45
2022/03/21 09:31:13;;;;;;;19.10;14.05;;;26.30;79.30;;;;;;5087484;28;20104;-44
2022/03/21 09:33:41;;;;;;;19.88;14.75;;;26.30;79.30;;;;;;5087604;28;20020;-45
2022/03/21 09:36:08;;;;;;;16.40;13.50;;;26.30;79.10;;;;;;5087304;28;20033;-44
2022/03/21 09:38:37;;;;;;;18.95;13.90;;;26.30;79.20;;;;;;5087302;28;20069;-45
2022/03/21 09:41:04;;;;;;;16.00;13.30;;;26.20;79.10;;;;;;5087218;28;20044;-43
2022/03/21 09:43:30;;;;;;;17.85;13.80;;;26.30;78.90;;;;;;5087463;28;20122;-42
2022/03/21 09:45:58;;;;;;;16.20;13.07;;;26.30;78.90;;;;;;5087464;28;20371;-42
2022/03/21 09:48:27;;;;;;;14.93;13.23;;;26.30;78.90;;;;;;5087026;28;20028;-44
2022/03/21 09:50:56;;;;;;;16.10;12.82;;;26.30;79.00;;;;;;5087297;28;20016;-48
2022/03/21 09:53:24;;;;;;;17.70;13.68;;;26.30;78.70;;;;;;5087376;28;20031;-44
2022/03/21 09:55:51;;;;;;;17.95;13.57;;;26.30;78.60;;;;;;5087097;28;20042;-44
2022/03/21 09:58:20;;;;;;;23.38;13.80;;;26.30;78.70;;;;;;5086855;28;20036;-47
2022/03/21 10:00:48;;;;;;;16.73;13.75;;;26.30;78.90;;;;;;5086897;28;20328;-46
2022/03/21 10:03:18;;;;;;;19.50;14.52;;;26.30;79.40;;;;;;5086876;28;20033;-45
2022/03/21 10:05:46;;;;;;;18.70;13.70;;;26.30;78.90;;;;;;5086856;28;20059;-51
2022/03/21 10:08:25;;;;;;;18.85;14.18;;;26.30;79.00;;;;;;5086631;28;20254;-43
2022/03/21 10:11:04;;;;;;;16.13;14.05;;;26.30;79.30;;;;;;5086801;28;20074;-49
2022/03/21 10:13:36;;;;;;;18.30;13.90;;;26.20;79.30;;;;;;5086592;28;20043;-51
2022/03/21 10:16:20;;;;;;;17.05;14.65;;;26.20;79.50;;;;;;5086623;28;20028;-45
2022/03/21 10:18:53;;;;;;;17.70;14.00;;;26.20;79.60;;;;;;5086606;28;20020;-43
2022/03/21 10:21:22;;;;;;;20.27;13.55;;;26.20;79.70;;;;;;5086816;28;20075;-49
2022/03/21 10:24:06;;;;;;;14.93;13.35;;;26.20;79.80;;;;;;5086665;28;20264;-53
2022/03/21 10:26:46;;;;;;;15.95;13.85;;;26.20;79.70;;;;;;5086503;28;20040;-47
2022/03/21 10:29:13;;;;;;;23.45;15.18;;;26.20;79.90;;;;;;5085859;28;20347;-40
2022/03/21 10:31:52;;;;;;;15.75;11.77;;;26.10;80.10;;;;;;5087019;28;20040;-44
2022/03/21 10:34:21;;;;;;;22.23;14.80;;;26.10;80.10;;;;;;5086294;28;20095;-43
2022/03/21 10:37:03;;;;;;;18.45;13.93;;;26.10;80.00;;;;;;5086253;28;20060;-51
2022/03/21 10:39:32;;;;;;;19.13;13.80;;;26.20;80.20;;;;;;5086204;28;20250;-49
2022/03/21 10:42:04;;;;;;;23.77;15.07;;;26.20;80.70;;;;;;5086436;28;20274;-46
2022/03/21 10:44:33;;;;;;;19.30;14.00;;;26.10;81.50;;;;;;5086093;28;20264;-45
2022/03/21 10:47:03;;;;;;;18.02;13.85;;;26.10;81.30;;;;;;5086356;28;20082;-42
2022/03/21 10:49:34;;;;;;;16.50;13.95;;;26.10;80.60;;;;;;5086098;28;20039;-46
2022/03/21 10:52:01;;;;;;;16.42;13.60;;;26.10;80.30;;;;;;5086437;28;20028;-45
2022/03/21 10:54:48;;;;;;;17.88;13.32;;;26.10;80.00;;;;;;5085904;28;20040;-41
2022/03/21 10:57:32;;;;;;;17.77;12.75;;;26.10;80.10;;;;;;5085648;28;20059;-42
2022/03/21 11:00:22;;;;;;;26.95;13.23;;;26.10;80.10;;;;;;5085652;28;20017;-41
2022/03/21 11:03:09;;;;;;;26.13;12.82;;;26.10;80.20;;;;;;5086248;28;20312;-42
2022/03/21 11:05:43;;;;;;;22.42;12.27;;;26.10;80.50;;;;;;5085585;28;20020;-43
2022/03/21 11:08:13;;;;;;;21.55;11.43;;;26.10;80.60;;;;;;5085590;28;20355;-46
2022/03/21 11:10:41;;;;;;;22.08;11.57;;;26.10;80.80;;;;;;5085643;28;20013;-45
2022/03/21 11:13:09;;;;;;;18.52;11.85;;;26.10;80.60;;;;;;5086146;28;20039;-53
2022/03/21 11:15:38;;;;;;;22.00;11.70;;;26.10;81.10;;;;;;5085285;28;20020;-42
2022/03/21 11:18:06;;;;;;;19.77;12.65;;;26.10;81.20;;;;;;5085903;28;20032;-49
2022/03/21 11:20:34;;;;;;;21.00;11.70;;;26.10;81.40;;;;;;5085491;28;20095;-49
2022/03/21 11:23:02;;;;;;;20.85;11.73;;;26.10;81.50;;;;;;5085717;28;20024;-47
2022/03/21 11:25:37;;;;;;;21.20;12.27;;;26.10;81.50;;;;;;5085256;28;20028;-44
2022/03/21 11:28:20;;;;;;;20.73;12.50;;;26.10;81.50;;;;;;5085708;28;20032;-41
2022/03/21 11:31:12;;;;;;;21.45;11.77;;;26.10;81.80;;;;;;5085103;28;20040;-51
2022/03/21 11:33:51;;;;;;;20.65;12.65;;;26.10;81.90;;;;;;5085026;28;20201;-45
2022/03/21 11:36:17;;;;;;;20.92;12.70;;;26.10;82.30;;;;;;5085126;28;20033;-44
2022/03/21 11:38:46;;;;;;;18.20;13.40;;;26.10;82.90;;;;;;5084887;28;20020;-49
2022/03/21 11:41:18;;;;;;;16.88;12.52;;;26.10;82.90;;;;;;5084504;28;20029;-54
2022/03/21 11:43:47;;;;;;;18.40;13.13;;;26.10;82.80;;;;;;5084913;28;20020;-43
2022/03/21 11:46:30;;;;;;;25.40;13.45;;;26.10;83.00;;;;;;5084805;28;20032;-45
2022/03/21 11:48:59;;;;;;;22.50;13.65;;;26.10;82.90;;;;;;5084808;28;20023;-49
2022/03/21 11:51:36;;;;;;;21.58;14.00;;;26.10;83.30;;;;;;5084662;28;20312;-44
2022/03/21 11:54:04;;;;;;;23.95;14.48;;;26.10;83.60;;;;;;5084758;28;20027;-48
2022/03/21 11:56:43;;;;;;;22.65;14.88;;;26.10;83.70;;;;;;5084446;28;20049;-44
2022/03/21 11:59:32;;;;;;;18.30;15.18;;;26.10;83.40;;;;;;5084575;28;20024;-45
2022/03/21 12:02:08;;;;;;;21.52;14.57;;;26.10;83.50;;;;;;5083439;28;20028;-44
2022/03/21 12:04:37;;;;;;;21.20;15.27;;;26.10;83.50;;;;;;5084525;28;20055;-49
2022/03/21 12:07:13;;;;;;;28.95;16.13;;;26.10;84.10;;;;;;5084751;28;20041;-48
2022/03/21 12:09:43;;;;;;;23.83;14.55;;;26.10;83.50;;;;;;5084533;28;20040;-46
2022/03/21 12:12:10;;;;;;;21.38;14.75;;;26.20;83.60;;;;;;5084815;28;20037;-48
2022/03/21 12:14:41;;;;;;;26.27;16.05;;;26.20;83.70;;;;;;5083030;28;20021;-43
2022/03/21 12:17:11;;;;;;;21.08;14.85;;;26.20;83.30;;;;;;5082724;28;20029;-45
2022/03/21 12:19:57;;;;;;;20.83;14.88;;;26.20;83.20;;;;;;5082509;28;20035;-42
2022/03/21 12:22:30;;;;;;;23.50;15.57;;;26.30;83.20;;;;;;5082582;28;20194;-45
2022/03/21 12:24:57;;;;;;;;;;;26.30;83.60;;;;;;5083158;28;20033;-43
2022/03/21 12:27:51;;;;;;;21.20;15.18;;;26.30;83.40;;;;;;5082909;28;19909;-43
2022/03/21 12:30:27;;;;;;;21.90;14.57;;;26.30;83.50;;;;;;5083895;28;20074;-44
2022/03/21 12:32:55;;;;;;;26.23;14.98;;;26.30;83.30;;;;;;5084898;28;20029;-42
2022/03/21 12:35:51;;;;;;;28.20;15.32;;;26.30;83.50;;;;;;5077794;28;20036;-48
2022/03/21 12:38:21;;;;;;;21.15;15.07;;;26.30;83.60;;;;;;5084285;28;20037;-49
2022/03/21 12:40:51;;;;;;;19.10;14.77;;;26.30;83.70;;;;;;5083948;28;20204;-55
2022/03/21 12:43:18;;;;;;;22.80;14.38;;;26.30;83.90;;;;;;5084275;28;20052;-43
2022/03/21 12:45:46;;;;;;;33.50;15.10;;;26.30;84.10;;;;;;5084370;28;20019;-44
2022/03/21 12:48:17;;;;;;;26.38;15.40;;;26.30;83.90;;;;;;5084204;28;20032;-45
2022/03/21 12:50:49;;;;;;;21.33;14.73;;;26.40;83.90;;;;;;5084182;28;20039;-44
2022/03/21 12:53:21;;;;;;;29.38;15.65;;;26.40;84.00;;;;;;5083664;28;20058;-43
2022/03/21 12:56:00;;;;;;;24.33;14.80;;;26.40;83.80;;;;;;5083656;28;20028;-43
2022/03/21 12:58:26;;;;;;;25.65;15.63;;;26.40;83.70;;;;;;5083667;28;20104;-46